Ewen, Michigan
Current Conditions -  °F | °C
As of 6:55 AM on Friday 19 Dec 2014 (Local Time) from KLNL Reporting Station
Overcast Overcast  
Wind Chill: -2°   Ceiling: 100
Heat Index: -2°   Visibility: 10mi
Dew Point: -6°   Wind: 0mph
Humidity: 85%   Direction: NA
Pressure: 30.23"   Gusts: NA
Location:  46.53°N, 89.28°W
Report Text: KLNL 191155Z AUTO 00000KT 10SM OVC001 M19/M21 A3023 RMK AO2 70009 T11911211 11185 21204
Loading
Personal Weather Stations






























Interactive Weather Map New forecast layout! Learn more

10-Day Weather Forecast

Advertisements
Track Severe Weather on mobile